Time;durP1;ratioP1;P1;durP2;ratioP2;P2;SDS_P1;SDS_P2;PMS_P1;PMS_P2;Temp;Humidity;BMP_temperature;BMP_pressure;BME280_temperature;BME280_humidity;BME280_pressure;Samples;Min_cycle;Max_cycle;Signal;HPM_P1;HPM_P2
2023/04/01 00:00:22;;;;;;;0.77;0.50;;;9.20;99.90;;;;;;5138009;27;20147;-81
2023/04/01 00:02:48;;;;;;;0.50;0.47;;;9.20;99.90;;;;;;5119340;27;20079;-81
2023/04/01 00:05:14;;;;;;;1.07;0.67;;;9.20;99.90;;;;;;5137868;27;20769;-80
2023/04/01 00:07:40;;;;;;;0.75;0.35;;;9.20;99.90;;;;;;5119849;27;20042;-80
2023/04/01 00:10:08;;;;;;;0.60;0.60;;;9.20;99.90;;;;;;5137392;27;20047;-81
2023/04/01 00:12:35;;;;;;;0.55;0.38;;;9.20;99.90;;;;;;5119776;27;20150;-80
2023/04/01 00:15:01;;;;;;;0.35;0.30;;;9.20;99.90;;;;;;5102200;27;20051;-81
2023/04/01 00:17:27;;;;;;;0.20;0.20;;;9.10;99.90;;;;;;5119559;27;20039;-80
2023/04/01 00:19:56;;;;;;;0.27;0.27;;;9.20;99.90;;;;;;5118356;27;20050;-81
2023/04/01 00:22:22;;;;;;;0.20;0.20;;;9.20;99.90;;;;;;5119433;27;20408;-81
2023/04/01 00:24:47;;;;;;;0.43;0.35;;;9.20;99.90;;;;;;5137134;27;20047;-81
2023/04/01 00:27:14;;;;;;;0.30;0.30;;;9.20;99.90;;;;;;5137373;27;20142;-80
2023/04/01 00:29:42;;;;;;;0.57;0.30;;;9.10;99.90;;;;;;5137424;27;20111;-80
2023/04/01 00:32:08;;;;;;;2.63;0.55;;;9.10;99.90;;;;;;5118827;27;20092;-80
2023/04/01 00:34:34;;;;;;;1.23;0.77;;;9.10;99.90;;;;;;5136976;27;20083;-80
2023/04/01 00:37:00;;;;;;;1.17;0.50;;;9.10;99.90;;;;;;5119049;27;20104;-81
2023/04/01 00:39:28;;;;;;;0.38;0.38;;;9.10;99.90;;;;;;5118876;27;20058;-80
2023/04/01 00:41:54;;;;;;;0.57;0.40;;;9.10;99.90;;;;;;5136590;27;20050;-81
2023/04/01 00:44:28;;;;;;;0.57;0.37;;;8.80;99.90;;;;;;5119120;27;20050;-81
2023/04/01 00:46:55;;;;;;;0.20;0.20;;;9.10;99.90;;;;;;5136789;27;20054;-81
2023/04/01 00:49:25;;;;;;;0.13;0.13;;;9.10;99.90;;;;;;5136099;27;20122;-80
2023/04/01 00:51:55;;;;;;;0.63;0.15;;;9.10;99.90;;;;;;5137024;27;20050;-80
2023/04/01 00:54:24;;;;;;;0.68;0.30;;;9.10;99.90;;;;;;5137124;27;20035;-80
2023/04/01 00:56:58;;;;;;;0.85;0.40;;;9.10;99.90;;;;;;5136381;27;20054;-84
2023/04/01 00:59:31;;;;;;;0.30;0.30;;;9.10;99.90;;;;;;5118887;27;20073;-80
2023/04/01 01:01:56;;;;;;;0.10;0.10;;;9.10;99.90;;;;;;5136499;27;20046;-81
2023/04/01 01:04:25;;;;;;;1.97;0.77;;;9.00;99.90;;;;;;5136623;27;20047;-80
2023/04/01 01:07:19;;;;;;;1.13;0.47;;;9.10;99.90;;;;;;5118147;27;20096;-84
2023/04/01 01:09:57;;;;;;;1.17;0.30;;;9.10;99.90;;;;;;5136642;27;20051;-81
2023/04/01 01:12:40;;;;;;;0.10;0.10;;;9.10;99.90;;;;;;5119008;27;20090;-80
2023/04/01 01:15:23;;;;;;;0.20;0.20;;;9.10;99.90;;;;;;5136070;27;20503;-80
2023/04/01 01:17:59;;;;;;;0.73;0.40;;;9.10;99.90;;;;;;5100968;27;20385;-80
2023/04/01 01:20:56;;;;;;;0.50;0.30;;;9.10;99.90;;;;;;5136172;27;20138;-80
2023/04/01 01:23:53;;;;;;;0.35;0.20;;;9.10;99.90;;;;;;5117895;27;20047;-81
2023/04/01 01:26:46;;;;;;;0.65;0.50;;;9.10;99.90;;;;;;5117419;27;20122;-80
2023/04/01 01:29:42;;;;;;;0.90;0.10;;;9.10;99.90;;;;;;5116993;27;20614;-80
2023/04/01 01:32:29;;;;;;;0.60;0.17;;;9.10;99.90;;;;;;5099810;27;20055;-80
2023/04/01 01:35:28;;;;;;;0.10;0.10;;;9.10;99.90;;;;;;5135810;27;20051;-83
2023/04/01 01:37:59;;;;;;;0.40;0.40;;;9.10;99.90;;;;;;5103998;27;20489;-87
2023/04/01 01:40:27;;;;;;;0.35;0.35;;;9.10;99.90;;;;;;5116987;27;20054;-80
2023/04/01 01:42:57;;;;;;;0.60;0.10;;;9.00;99.90;;;;;;5117412;27;20051;-84
2023/04/01 01:45:26;;;;;;;1.02;0.30;;;9.00;99.90;;;;;;5135849;27;20047;-80
2023/04/01 01:47:53;;;;;;;0.38;0.30;;;9.00;99.90;;;;;;5117799;27;20095;-80
2023/04/01 01:50:21;;;;;;;0.10;0.10;;;9.00;99.90;;;;;;5135598;27;20047;-81
2023/04/01 01:52:47;;;;;;;0.68;0.30;;;9.00;99.90;;;;;;5135467;27;20039;-81
2023/04/01 01:55:43;;;;;;;1.67;0.37;;;9.00;99.90;;;;;;5117332;27;20069;-80
2023/04/01 01:58:26;;;;;;;0.93;0.77;;;9.00;99.90;;;;;;5125941;27;20051;-81
2023/04/01 02:00:59;;;;;;;0.13;0.10;;;9.00;99.90;;;;;;5117251;27;20051;-81
2023/04/01 02:03:29;;;;;;;0.40;0.22;;;9.00;99.90;;;;;;5117323;27;20043;-80
2023/04/01 02:05:59;;;;;;;0.43;0.43;;;9.00;99.90;;;;;;5117058;27;20039;-81
2023/04/01 02:08:37;;;;;;;0.28;0.10;;;9.00;99.90;;;;;;5135641;27;20135;-80
2023/04/01 02:11:08;;;;;;;0.10;0.10;;;8.90;99.90;;;;;;5134966;27;20074;-81
2023/04/01 02:13:45;;;;;;;0.10;0.10;;;8.90;99.90;;;;;;5135199;27;20050;-80
2023/04/01 02:16:20;;;;;;;0.73;0.73;;;9.00;99.90;;;;;;5134361;27;20066;-80
2023/04/01 02:18:50;;;;;;;0.20;0.20;;;8.90;99.90;;;;;;5135085;27;20452;-80
2023/04/01 02:21:18;;;;;;;0.20;0.20;;;8.90;99.90;;;;;;5134320;27;20488;-81
2023/04/01 02:23:45;;;;;;;0.70;0.10;;;8.90;99.90;;;;;;5135057;27;20051;-80
2023/04/01 02:26:12;;;;;;;0.45;0.22;;;8.90;99.90;;;;;;5116303;27;20442;-81
2023/04/01 02:28:38;;;;;;;;;;;8.90;99.90;;;;;;5116921;27;20103;-80
2023/04/01 02:31:04;;;;;;;0.00;0.00;;;8.90;99.90;;;;;;5133920;27;19930;-81
2023/04/01 02:33:31;;;;;;;0.43;0.20;;;8.90;99.90;;;;;;5134854;27;20047;-81
2023/04/01 02:35:58;;;;;;;0.45;0.10;;;8.90;99.90;;;;;;5116478;27;20043;-80
2023/04/01 02:38:24;;;;;;;0.00;0.00;;;8.90;99.90;;;;;;5134304;27;20039;-81
2023/04/01 02:40:55;;;;;;;0.10;0.10;;;8.90;99.90;;;;;;5116591;27;20054;-80
2023/04/01 02:43:21;;;;;;;0.20;0.10;;;8.90;99.90;;;;;;5134409;27;20214;-81
2023/04/01 02:45:47;;;;;;;0.00;0.00;;;8.90;99.90;;;;;;5134222;27;20068;-80
2023/04/01 02:48:13;;;;;;;0.00;0.00;;;8.90;99.90;;;;;;5116238;27;20043;-80
2023/04/01 02:50:40;;;;;;;0.15;0.15;;;8.90;99.90;;;;;;5099692;27;20051;-80
2023/04/01 02:53:06;;;;;;;0.17;0.17;;;8.90;99.90;;;;;;5115397;27;20371;-85
2023/04/01 02:55:33;;;;;;;0.03;0.00;;;8.90;99.90;;;;;;5116029;27;20129;-81
2023/04/01 02:57:59;;;;;;;0.00;0.00;;;8.90;99.90;;;;;;5116351;27;20035;-80
2023/04/01 03:00:26;;;;;;;0.45;0.20;;;8.90;99.90;;;;;;5134317;27;20047;-80
2023/04/01 03:02:52;;;;;;;0.10;0.08;;;8.90;99.90;;;;;;5134378;27;20047;-80
2023/04/01 03:05:18;;;;;;;0.30;0.03;;;8.90;99.90;;;;;;5115836;27;20109;-80
2023/04/01 03:07:44;;;;;;;0.00;0.00;;;8.90;99.90;;;;;;5134219;27;20051;-80
2023/04/01 03:10:10;;;;;;;0.10;0.07;;;8.90;99.90;;;;;;5115853;27;20080;-80
2023/04/01 03:12:35;;;;;;;0.10;0.10;;;8.90;99.90;;;;;;5115247;28;20082;-80
2023/04/01 03:15:01;;;;;;;0.43;0.13;;;8.90;99.90;;;;;;5134166;27;20284;-80
2023/04/01 03:17:27;;;;;;;0.23;0.13;;;8.90;99.90;;;;;;5133871;27;20114;-80
2023/04/01 03:19:53;;;;;;;0.00;0.00;;;8.90;99.90;;;;;;5134162;27;20079;-80
2023/04/01 03:22:20;;;;;;;0.87;0.13;;;9.00;99.90;;;;;;5115189;27;20593;-80
2023/04/01 03:24:47;;;;;;;0.50;0.20;;;8.90;99.90;;;;;;5115859;28;20039;-80
2023/04/01 03:27:13;;;;;;;0.00;0.00;;;8.90;99.90;;;;;;5133667;27;20055;-80
2023/04/01 03:29:39;;;;;;;0.27;0.27;;;9.00;99.90;;;;;;5133806;27;20051;-80
2023/04/01 03:32:05;;;;;;;0.10;0.10;;;8.90;99.90;;;;;;5115843;28;20474;-80
2023/04/01 03:34:31;;;;;;;0.03;0.03;;;9.00;99.90;;;;;;5114891;28;20084;-80
2023/04/01 03:36:57;;;;;;;0.20;0.20;;;9.00;99.90;;;;;;5133803;28;20043;-81
2023/04/01 03:39:23;;;;;;;0.15;0.15;;;9.00;99.90;;;;;;5115184;28;20066;-80
2023/04/01 03:41:49;;;;;;;0.20;0.10;;;8.90;99.90;;;;;;5134007;28;20039;-80
2023/04/01 03:44:15;;;;;;;0.00;0.00;;;9.00;99.90;;;;;;5133873;28;20507;-81
2023/04/01 03:46:40;;;;;;;0.07;0.07;;;9.00;99.90;;;;;;5133967;28;20043;-80
2023/04/01 03:49:11;;;;;;;0.20;0.17;;;9.00;99.90;;;;;;5134067;28;20162;-80
2023/04/01 03:51:38;;;;;;;0.43;0.20;;;8.90;99.90;;;;;;5115172;28;20482;-80
2023/04/01 03:54:04;;;;;;;0.43;0.43;;;9.00;99.90;;;;;;5115620;28;20489;-80
2023/04/01 03:56:30;;;;;;;0.22;0.22;;;8.90;99.90;;;;;;5114880;28;20505;-80
2023/04/01 03:58:56;;;;;;;0.03;0.00;;;9.00;99.90;;;;;;5133950;28;20039;-80
2023/04/01 04:01:22;;;;;;;0.63;0.10;;;9.00;99.90;;;;;;5114874;28;20374;-80
2023/04/01 04:03:49;;;;;;;0.00;0.00;;;9.00;99.90;;;;;;5098857;28;20056;-80
2023/04/01 04:06:16;;;;;;;0.47;0.47;;;9.00;99.90;;;;;;5133229;28;20047;-85
2023/04/01 04:08:42;;;;;;;0.10;0.10;;;9.00;99.90;;;;;;5098854;28;20438;-80
2023/04/01 04:11:08;;;;;;;0.20;0.20;;;9.00;99.90;;;;;;5133779;28;20047;-80
2023/04/01 04:13:35;;;;;;;0.98;0.22;;;9.00;99.90;;;;;;5115317;28;20130;-80
2023/04/01 04:16:02;;;;;;;;;;;9.00;99.90;;;;;;5099135;28;20047;-80
2023/04/01 04:18:27;;;;;;;0.38;0.38;;;9.00;99.90;;;;;;5114919;28;19919;-81
2023/04/01 04:20:53;;;;;;;0.10;0.10;;;9.00;99.90;;;;;;5115389;28;20079;-81
2023/04/01 04:23:19;;;;;;;0.33;0.13;;;9.00;99.90;;;;;;5133388;28;20039;-81
2023/04/01 04:26:03;;;;;;;0.10;0.10;;;9.00;99.90;;;;;;5119281;27;20054;-80
2023/04/01 04:28:29;;;;;;;0.10;0.10;;;9.00;99.90;;;;;;5118945;27;20092;-81
2023/04/01 04:30:55;;;;;;;0.90;0.20;;;9.00;99.90;;;;;;5136745;27;20078;-80
2023/04/01 04:33:22;;;;;;;0.28;0.17;;;9.00;99.90;;;;;;5136877;27;20112;-80
2023/04/01 04:35:47;;;;;;;1.85;0.25;;;9.00;99.90;;;;;;5118761;27;20392;-81
2023/04/01 04:38:13;;;;;;;0.53;0.20;;;9.00;99.90;;;;;;5137094;27;20263;-80
2023/04/01 04:40:41;;;;;;;0.00;0.00;;;9.00;99.90;;;;;;5136722;27;20087;-80
2023/04/01 04:43:09;;;;;;;1.00;0.38;;;9.00;99.90;;;;;;5137128;27;20039;-80
2023/04/01 04:45:34;;;;;;;0.30;0.30;;;9.00;99.90;;;;;;5118590;27;20138;-80
2023/04/01 04:48:00;;;;;;;0.40;0.37;;;9.00;99.90;;;;;;5137302;27;20108;-80
2023/04/01 04:50:26;;;;;;;1.30;0.40;;;9.00;99.90;;;;;;5118309;27;20058;-80
2023/04/01 04:52:52;;;;;;;0.73;0.30;;;9.00;99.90;;;;;;5101886;27;20128;-80
2023/04/01 04:55:17;;;;;;;0.50;0.50;;;9.00;99.90;;;;;;5101845;27;20367;-80
2023/04/01 04:57:43;;;;;;;1.10;0.43;;;9.00;99.90;;;;;;5136395;27;20587;-80
2023/04/01 05:00:12;;;;;;;1.73;0.40;;;9.00;99.90;;;;;;5136603;27;20129;-81
2023/04/01 05:02:38;;;;;;;0.00;0.00;;;9.00;99.90;;;;;;5118171;27;20049;-80
2023/04/01 05:05:04;;;;;;;0.33;0.27;;;9.00;99.90;;;;;;5136716;27;20047;-80
2023/04/01 05:07:30;;;;;;;0.17;0.10;;;9.00;99.90;;;;;;5136384;27;20046;-80
2023/04/01 05:09:55;;;;;;;0.57;0.27;;;9.00;99.90;;;;;;5136713;27;20465;-81
2023/04/01 05:12:21;;;;;;;0.43;0.20;;;9.00;99.90;;;;;;5118095;27;20039;-80
2023/04/01 05:14:47;;;;;;;1.52;0.20;;;9.00;99.90;;;;;;5136544;27;20039;-80
2023/04/01 05:17:13;;;;;;;0.37;0.20;;;9.00;99.90;;;;;;5100828;27;20047;-80
2023/04/01 05:19:39;;;;;;;0.30;0.30;;;9.00;99.90;;;;;;5117811;27;20441;-80
2023/04/01 05:22:05;;;;;;;0.47;0.47;;;9.00;99.90;;;;;;5136205;27;20102;-80
2023/04/01 05:24:31;;;;;;;0.93;0.73;;;9.00;99.90;;;;;;5135668;27;20039;-80
2023/04/01 05:26:57;;;;;;;0.57;0.20;;;9.00;99.90;;;;;;5118327;27;20092;-80
2023/04/01 05:29:24;;;;;;;0.37;0.37;;;9.00;99.90;;;;;;5118012;27;20035;-81
2023/04/01 05:31:50;;;;;;;1.65;0.60;;;9.00;99.90;;;;;;5135413;27;20442;-81
2023/04/01 05:34:16;;;;;;;1.60;0.73;;;9.00;99.90;;;;;;5136200;27;20536;-80
2023/04/01 05:36:43;;;;;;;0.43;0.23;;;9.00;99.90;;;;;;5099855;27;20047;-80
2023/04/01 05:39:11;;;;;;;0.70;0.63;;;9.00;99.90;;;;;;5117620;27;20043;-80
2023/04/01 05:41:38;;;;;;;0.80;0.20;;;9.00;99.90;;;;;;5117476;27;20137;-80
2023/04/01 05:44:04;;;;;;;1.52;0.77;;;9.00;99.90;;;;;;5100136;27;20047;-81
2023/04/01 05:46:31;;;;;;;0.30;0.20;;;9.00;99.90;;;;;;5135445;27;20096;-80
2023/04/01 05:48:57;;;;;;;0.57;0.13;;;9.00;99.90;;;;;;5135987;27;20039;-80
2023/04/01 05:51:23;;;;;;;0.28;0.28;;;9.00;99.90;;;;;;5135096;27;20058;-80
2023/04/01 05:53:49;;;;;;;0.20;0.20;;;9.00;99.90;;;;;;5116964;27;20625;-80
2023/04/01 05:56:14;;;;;;;0.90;0.13;;;9.00;99.90;;;;;;5100577;27;20051;-80
2023/04/01 05:58:40;;;;;;;0.40;0.23;;;9.00;99.90;;;;;;5116996;27;20095;-81
2023/04/01 06:01:09;;;;;;;0.40;0.40;;;9.00;99.90;;;;;;5135611;27;20047;-80
2023/04/01 06:03:35;;;;;;;0.10;0.00;;;9.00;99.90;;;;;;5116980;27;20491;-81
2023/04/01 06:06:01;;;;;;;0.40;0.40;;;9.00;99.90;;;;;;5135275;27;20078;-81
2023/04/01 06:08:29;;;;;;;0.00;0.00;;;9.00;99.90;;;;;;5100342;27;20058;-80
2023/04/01 06:11:08;;;;;;;0.65;0.22;;;9.00;99.90;;;;;;5135499;27;20126;-80
2023/04/01 06:13:46;;;;;;;0.17;0.17;;;9.00;99.90;;;;;;5099426;27;20039;-81
2023/04/01 06:16:42;;;;;;;0.32;0.17;;;9.00;99.90;;;;;;5135447;27;20439;-80
2023/04/01 06:19:46;;;;;;;0.15;0.15;;;9.00;99.90;;;;;;5134878;27;20043;-80
2023/04/01 06:22:43;;;;;;;0.10;0.10;;;9.00;99.90;;;;;;5117230;27;20051;-80
2023/04/01 06:25:35;;;;;;;0.57;0.22;;;9.00;99.90;;;;;;5135018;27;20043;-82
2023/04/01 06:28:05;;;;;;;0.95;0.13;;;9.00;99.90;;;;;;5116925;27;20051;-81
2023/04/01 06:30:43;;;;;;;1.52;0.28;;;8.90;99.90;;;;;;5112357;28;20087;-81
2023/04/01 06:33:22;;;;;;;0.70;0.30;;;9.00;99.90;;;;;;5114513;28;20196;-81
2023/04/01 06:36:22;;;;;;;0.50;0.35;;;8.90;99.90;;;;;;5113884;28;20075;-81
2023/04/01 06:39:00;;;;;;;1.13;0.43;;;8.90;99.90;;;;;;5113384;28;20048;-80
2023/04/01 06:41:32;;;;;;;1.25;0.52;;;9.00;99.90;;;;;;5113296;28;20134;-80
2023/04/01 06:44:39;;;;;;;2.20;0.20;;;9.00;99.90;;;;;;5112372;28;20446;-80
2023/04/01 06:47:07;;;;;;;1.30;0.40;;;9.00;99.90;;;;;;5070003;28;20051;-81
2023/04/01 06:49:36;;;;;;;0.60;0.30;;;9.00;99.90;;;;;;5070987;28;20044;-82
2023/04/01 06:52:08;;;;;;;0.47;0.38;;;9.00;99.90;;;;;;5092890;28;20150;-81
2023/04/01 06:54:39;;;;;;;0.75;0.30;;;9.10;99.90;;;;;;5112653;28;20184;-81
2023/04/01 06:57:23;;;;;;;0.20;0.20;;;9.20;99.90;;;;;;5112177;28;20051;-81
2023/04/01 06:59:50;;;;;;;2.28;0.57;;;9.20;99.90;;;;;;5094750;28;20047;-83
2023/04/01 07:02:36;;;;;;;0.77;0.40;;;9.30;99.90;;;;;;5111483;28;20100;-82
2023/04/01 07:05:03;;;;;;;0.25;0.25;;;9.40;99.90;;;;;;5111859;28;20091;-82
2023/04/01 07:07:53;;;;;;;2.58;0.63;;;9.50;99.90;;;;;;5113913;28;20055;-84
2023/04/01 07:10:42;;;;;;;1.80;0.50;;;9.50;99.90;;;;;;5108236;28;20054;-84
2023/04/01 07:13:22;;;;;;;0.40;0.40;;;9.60;99.90;;;;;;5083680;28;20048;-83
2023/04/01 07:16:16;;;;;;;0.17;0.17;;;9.70;99.90;;;;;;5112008;28;20063;-81
2023/04/01 07:18:42;;;;;;;0.85;0.60;;;9.70;99.90;;;;;;5112918;28;20044;-84
2023/04/01 07:21:25;;;;;;;0.43;0.40;;;9.80;99.90;;;;;;5089322;28;20620;-80
2023/04/01 07:23:54;;;;;;;0.60;0.50;;;9.80;99.90;;;;;;5104683;28;20406;-81
2023/04/01 07:26:22;;;;;;;0.65;0.20;;;9.80;99.90;;;;;;5111999;28;20048;-81
2023/04/01 07:28:50;;;;;;;1.80;0.50;;;9.80;99.90;;;;;;5113384;28;20046;-81
2023/04/01 07:31:30;;;;;;;0.57;0.30;;;9.80;99.90;;;;;;5122155;28;20059;-83
2023/04/01 07:34:17;;;;;;;1.70;0.40;;;9.90;99.90;;;;;;5098304;28;20050;-82
2023/04/01 07:36:48;;;;;;;0.63;0.20;;;9.90;99.90;;;;;;5132901;28;20047;-82
2023/04/01 07:39:35;;;;;;;0.75;0.45;;;9.90;99.90;;;;;;5133343;28;20485;-81
2023/04/01 07:42:07;;;;;;;0.10;0.10;;;9.90;99.90;;;;;;5115173;28;20050;-82
2023/04/01 07:45:18;;;;;;;0.95;0.77;;;10.00;99.90;;;;;;5115517;28;20091;-81
2023/04/01 07:47:49;;;;;;;0.80;0.60;;;10.10;99.90;;;;;;5091782;28;20228;-82
2023/04/01 07:50:32;;;;;;;0.63;0.20;;;10.20;99.90;;;;;;5114988;28;20393;-81
2023/04/01 07:53:03;;;;;;;0.63;0.45;;;10.30;99.90;;;;;;5133195;28;20123;-82
2023/04/01 07:55:46;;;;;;;1.52;0.80;;;10.30;99.90;;;;;;5115783;28;20046;-81
2023/04/01 07:58:24;;;;;;;0.68;0.68;;;10.30;99.90;;;;;;5133873;27;20096;-81
2023/04/01 08:01:06;;;;;;;0.05;0.05;;;10.40;99.90;;;;;;5118930;27;20051;-81
2023/04/01 08:03:51;;;;;;;0.52;0.32;;;10.40;99.90;;;;;;5118693;27;20050;-82
2023/04/01 08:06:32;;;;;;;0.43;0.10;;;10.50;99.90;;;;;;5102800;27;20413;-81
2023/04/01 08:09:03;;;;;;;0.57;0.15;;;10.50;99.90;;;;;;5119326;27;20054;-81
2023/04/01 08:11:48;;;;;;;0.20;0.17;;;10.50;99.90;;;;;;5119464;27;20394;-81
2023/04/01 08:14:55;;;;;;;0.45;0.38;;;10.50;99.90;;;;;;5137792;27;20076;-81
2023/04/01 08:17:49;;;;;;;0.32;0.10;;;10.50;99.90;;;;;;5119235;27;20050;-81
2023/04/01 08:20:53;;;;;;;1.58;0.70;;;10.50;99.90;;;;;;5119029;27;20042;-82
2023/04/01 08:23:36;;;;;;;0.60;0.15;;;10.50;99.90;;;;;;5118922;27;20043;-81
2023/04/01 08:26:05;;;;;;;0.95;0.35;;;10.50;99.90;;;;;;5118613;27;20060;-82
2023/04/01 08:28:40;;;;;;;0.65;0.65;;;10.50;99.90;;;;;;5118883;27;20047;-81
2023/04/01 08:31:17;;;;;;;1.98;0.52;;;10.50;99.90;;;;;;5118115;27;20075;-81
2023/04/01 08:33:46;;;;;;;0.45;0.45;;;10.50;99.90;;;;;;5136914;27;20057;-82
2023/04/01 08:36:33;;;;;;;0.28;0.25;;;10.50;99.90;;;;;;5136556;27;20047;-81
2023/04/01 08:39:10;;;;;;;0.45;0.20;;;10.50;99.90;;;;;;5136252;27;20039;-81
2023/04/01 08:42:30;;;;;;;1.05;0.35;;;10.50;99.90;;;;;;5118164;27;20100;-84
2023/04/01 08:45:33;;;;;;;0.70;0.10;;;10.50;99.90;;;;;;5091854;27;20055;-81
2023/04/01 08:48:32;;;;;;;0.47;0.47;;;10.50;99.90;;;;;;5117470;27;20043;-81
2023/04/01 08:51:10;;;;;;;0.52;0.50;;;10.40;99.90;;;;;;5118169;27;20043;-81
2023/04/01 08:54:03;;;;;;;0.25;0.15;;;10.50;99.90;;;;;;5117814;27;20489;-81
2023/04/01 08:56:53;;;;;;;0.32;0.17;;;10.50;99.90;;;;;;5136423;27;20108;-81
2023/04/01 08:59:37;;;;;;;2.50;0.55;;;10.50;99.90;;;;;;5117575;27;20127;-83
2023/04/01 09:02:35;;;;;;;0.20;0.15;;;10.50;99.90;;;;;;5118778;27;20039;-83
2023/04/01 09:05:02;;;;;;;1.67;0.30;;;10.50;99.90;;;;;;5101116;27;20089;-83
2023/04/01 09:07:39;;;;;;;1.33;1.02;;;10.40;99.90;;;;;;5118069;27;20050;-81
2023/04/01 09:10:23;;;;;;;2.67;0.93;;;10.40;99.90;;;;;;5135151;27;20096;-84
2023/04/01 09:13:18;;;;;;;2.38;0.52;;;10.40;99.90;;;;;;5117847;27;20043;-81
2023/04/01 09:16:05;;;;;;;1.95;0.50;;;10.40;99.90;;;;;;5100041;27;20489;-81
2023/04/01 09:18:43;;;;;;;0.43;0.43;;;10.40;99.90;;;;;;5117600;27;20123;-84
2023/04/01 09:21:15;;;;;;;0.77;0.13;;;10.40;99.90;;;;;;5134960;27;20051;-81
2023/04/01 09:24:03;;;;;;;1.02;0.90;;;10.50;99.90;;;;;;5100330;27;20042;-81
2023/04/01 09:27:01;;;;;;;0.82;0.50;;;10.50;99.90;;;;;;5117219;27;20043;-81
2023/04/01 09:29:50;;;;;;;0.43;0.32;;;10.60;99.90;;;;;;5117142;27;20050;-80
2023/04/01 09:32:34;;;;;;;2.17;0.85;;;10.60;99.90;;;;;;5115971;27;20059;-81
2023/04/01 09:35:24;;;;;;;1.33;0.57;;;10.70;99.90;;;;;;5117067;27;20047;-87
2023/04/01 09:38:19;;;;;;;0.80;0.50;;;10.70;99.90;;;;;;5117124;27;20051;-81
2023/04/01 09:40:55;;;;;;;1.30;0.32;;;10.70;99.90;;;;;;5117012;27;20087;-81
2023/04/01 09:43:43;;;;;;;2.95;1.27;;;10.70;99.90;;;;;;5116186;27;20144;-81
2023/04/01 09:46:17;;;;;;;1.27;0.60;;;10.70;99.90;;;;;;5116839;27;20130;-80
2023/04/01 09:49:13;;;;;;;1.20;0.95;;;10.70;99.90;;;;;;5135118;27;20099;-80
2023/04/01 09:51:49;;;;;;;1.60;0.47;;;10.70;99.90;;;;;;5101642;27;20039;-81
2023/04/01 09:54:46;;;;;;;0.98;0.52;;;10.70;99.90;;;;;;5116784;27;20051;-81
2023/04/01 09:57:48;;;;;;;0.60;0.57;;;10.80;99.90;;;;;;5116429;27;20726;-81
2023/04/01 10:00:55;;;;;;;1.65;0.77;;;10.80;99.90;;;;;;5134796;27;20413;-80
2023/04/01 10:03:20;;;;;;;0.20;0.20;;;10.80;99.90;;;;;;5079126;27;20417;-80
2023/04/01 10:06:17;;;;;;;0.63;0.37;;;10.80;99.90;;;;;;5134873;27;20050;-80
2023/04/01 10:09:30;;;;;;;1.98;0.40;;;10.80;99.90;;;;;;5135883;27;20082;-80
2023/04/01 10:12:29;;;;;;;0.85;0.63;;;10.80;99.90;;;;;;5091463;28;20048;-80
2023/04/01 10:15:01;;;;;;;0.43;0.30;;;10.70;99.90;;;;;;5116513;27;20051;-81
2023/04/01 10:17:45;;;;;;;0.22;0.22;;;10.60;99.90;;;;;;5099112;27;20511;-80
2023/04/01 10:20:45;;;;;;;0.65;0.30;;;10.60;99.90;;;;;;5116118;27;20070;-80
2023/04/01 10:23:42;;;;;;;1.05;0.35;;;10.50;99.90;;;;;;5115421;27;20085;-81
2023/04/01 10:26:25;;;;;;;1.83;0.80;;;10.40;99.90;;;;;;5133956;27;20083;-84
2023/04/01 10:29:06;;;;;;;0.05;0.00;;;10.30;99.90;;;;;;5134604;27;20043;-80
2023/04/01 10:31:40;;;;;;;0.28;0.25;;;10.20;99.90;;;;;;5115409;27;20055;-80
2023/04/01 10:34:24;;;;;;;0.10;0.10;;;10.20;99.90;;;;;;5134318;27;20047;-85
2023/04/01 10:36:55;;;;;;;1.45;0.73;;;10.10;99.90;;;;;;5116575;27;20054;-81
2023/04/01 10:39:36;;;;;;;0.45;0.35;;;10.10;99.90;;;;;;5115790;27;20039;-80
2023/04/01 10:42:30;;;;;;;0.10;0.10;;;10.10;99.90;;;;;;5115975;27;20069;-80
2023/04/01 10:45:38;;;;;;;0.75;0.70;;;10.00;99.90;;;;;;5133914;27;20050;-80
2023/04/01 10:48:30;;;;;;;1.02;0.57;;;9.90;99.90;;;;;;5134021;27;20089;-80
2023/04/01 10:51:09;;;;;;;0.98;0.40;;;9.90;99.90;;;;;;5133807;27;20051;-80
2023/04/01 10:53:55;;;;;;;0.28;0.15;;;9.90;99.90;;;;;;5115398;27;20114;-82
2023/04/01 10:56:44;;;;;;;0.50;0.50;;;9.80;99.90;;;;;;5115446;27;20069;-80
2023/04/01 10:59:54;;;;;;;0.40;0.40;;;9.80;99.90;;;;;;5115464;27;20055;-86
2023/04/01 11:02:44;;;;;;;0.30;0.30;;;9.70;99.90;;;;;;5073123;28;20123;-79
2023/04/01 11:05:34;;;;;;;0.10;0.00;;;9.70;99.90;;;;;;5133932;27;20047;-80
2023/04/01 11:08:37;;;;;;;0.82;0.45;;;9.70;99.90;;;;;;5115227;27;20046;-80
2023/04/01 11:11:40;;;;;;;0.73;0.52;;;9.70;99.90;;;;;;5134062;27;20043;-80
2023/04/01 11:14:28;;;;;;;0.20;0.10;;;9.70;99.90;;;;;;5133792;27;20047;-81
2023/04/01 11:17:03;;;;;;;0.40;0.30;;;9.70;99.90;;;;;;5115514;27;20050;-81
2023/04/01 11:19:49;;;;;;;0.55;0.30;;;9.80;99.90;;;;;;5097878;27;20095;-81
2023/04/01 11:22:29;;;;;;;0.13;0.13;;;9.70;99.90;;;;;;5113285;28;20138;-83
2023/04/01 11:25:43;;;;;;;0.40;0.20;;;9.70;99.90;;;;;;5113813;27;20051;-82
2023/04/01 11:28:20;;;;;;;0.63;0.17;;;9.70;99.90;;;;;;5076898;27;20059;-85
2023/04/01 11:31:17;;;;;;;0.60;0.40;;;9.60;99.90;;;;;;5132609;28;20443;-84
2023/04/01 11:34:27;;;;;;;0.40;0.35;;;9.60;99.90;;;;;;5131498;27;20132;-82
2023/04/01 11:36:59;;;;;;;0.10;0.10;;;9.60;99.90;;;;;;5114375;28;20047;-83
2023/04/01 11:40:02;;;;;;;0.13;0.13;;;9.60;99.90;;;;;;5113971;28;20090;-83
2023/04/01 11:42:45;;;;;;;0.05;0.05;;;9.60;99.90;;;;;;5132473;28;20100;-82
2023/04/01 11:45:20;;;;;;;1.40;0.45;;;9.60;99.90;;;;;;5132312;28;20042;-83
2023/04/01 11:48:27;;;;;;;0.15;0.10;;;9.60;99.90;;;;;;5114172;28;20054;-82
2023/04/01 11:51:15;;;;;;;0.10;0.10;;;9.60;99.90;;;;;;5132584;28;20465;-84
2023/04/01 11:53:50;;;;;;;0.05;0.05;;;9.50;99.90;;;;;;5114085;28;20047;-82
2023/04/01 11:56:39;;;;;;;0.52;0.40;;;9.40;99.90;;;;;;5114363;28;20051;-81
2023/04/01 11:59:31;;;;;;;0.10;0.10;;;9.40;99.90;;;;;;5113753;28;20046;-86
2023/04/01 12:02:06;;;;;;;0.15;0.15;;;9.40;99.90;;;;;;5114455;28;20047;-81
2023/04/01 12:04:41;;;;;;;0.43;0.25;;;9.40;99.90;;;;;;5113594;28;20631;-83
2023/04/01 12:07:18;;;;;;;0.00;0.00;;;9.40;99.90;;;;;;5132529;28;20317;-82
2023/04/01 12:10:06;;;;;;;0.25;0.20;;;9.40;99.90;;;;;;5113859;28;20412;-81
2023/04/01 12:12:57;;;;;;;0.82;0.50;;;9.40;99.90;;;;;;5113773;28;20489;-81
2023/04/01 12:15:41;;;;;;;0.05;0.00;;;9.50;99.90;;;;;;5113862;28;20520;-82
2023/04/01 12:18:25;;;;;;;0.13;0.10;;;9.50;99.90;;;;;;5097078;28;20051;-81
2023/04/01 12:21:20;;;;;;;1.23;0.45;;;9.50;99.90;;;;;;5114196;28;20370;-82
2023/04/01 12:24:10;;;;;;;0.55;0.30;;;9.50;99.90;;;;;;5104601;28;20138;-81
2023/04/01 12:26:52;;;;;;;1.10;0.68;;;9.50;99.90;;;;;;5113390;28;20051;-83
2023/04/01 12:29:41;;;;;;;0.43;0.20;;;9.50;99.90;;;;;;5132443;28;20092;-82
2023/04/01 12:32:24;;;;;;;0.13;0.13;;;9.50;99.90;;;;;;5113747;28;20062;-85
2023/04/01 12:35:17;;;;;;;2.53;0.88;;;9.50;99.90;;;;;;5114218;28;20047;-83
2023/04/01 12:38:10;;;;;;;1.25;0.35;;;9.50;99.90;;;;;;5113786;28;20047;-82
2023/04/01 12:40:49;;;;;;;0.57;0.20;;;9.50;99.90;;;;;;5114168;28;20096;-84
2023/04/01 12:43:32;;;;;;;0.57;0.20;;;9.50;99.90;;;;;;5133054;28;20378;-84
2023/04/01 12:46:01;;;;;;;0.70;0.40;;;9.40;99.90;;;;;;5115783;27;20450;-81
2023/04/01 12:48:41;;;;;;;0.38;0.05;;;9.40;99.90;;;;;;5117866;27;20068;-82
2023/04/01 12:51:28;;;;;;;0.10;0.10;;;9.30;99.90;;;;;;5118113;27;20039;-82
2023/04/01 12:54:32;;;;;;;0.20;0.20;;;9.30;99.90;;;;;;5136491;27;20051;-81
2023/04/01 12:57:06;;;;;;;0.38;0.20;;;9.30;99.90;;;;;;5101472;27;20492;-84
2023/04/01 12:59:52;;;;;;;0.08;0.08;;;9.30;99.90;;;;;;5100201;27;20134;-81
2023/04/01 13:02:17;;;;;;;0.45;0.45;;;9.20;99.90;;;;;;5136762;27;20054;-81
2023/04/01 13:04:51;;;;;;;0.37;0.30;;;9.20;99.90;;;;;;5118259;27;20051;-81
2023/04/01 13:07:43;;;;;;;0.63;0.50;;;9.10;99.90;;;;;;5136839;27;20184;-81
2023/04/01 13:10:27;;;;;;;0.93;0.25;;;9.10;99.90;;;;;;5102849;27;20063;-80
2023/04/01 13:13:21;;;;;;;2.80;0.77;;;9.10;99.90;;;;;;5118915;27;20515;-81
2023/04/01 13:15:52;;;;;;;1.00;0.28;;;9.10;99.90;;;;;;5118156;27;20047;-81
2023/04/01 13:18:44;;;;;;;0.38;0.38;;;9.00;99.90;;;;;;5118533;27;20055;-81
2023/04/01 13:21:28;;;;;;;0.65;0.40;;;9.00;99.90;;;;;;5117558;27;20094;-81
2023/04/01 13:24:04;;;;;;;0.10;0.10;;;8.90;99.90;;;;;;5136759;27;20129;-81
2023/04/01 13:26:33;;;;;;;0.17;0.17;;;8.90;99.90;;;;;;5136228;27;20043;-81
2023/04/01 13:29:09;;;;;;;0.20;0.20;;;8.90;99.90;;;;;;5118323;27;20043;-81
2023/04/01 13:31:46;;;;;;;0.10;0.10;;;8.90;99.90;;;;;;5117671;27;20462;-81
2023/04/01 13:34:32;;;;;;;0.00;0.00;;;8.90;99.90;;;;;;5136663;27;20393;-81
2023/04/01 13:37:09;;;;;;;0.10;0.10;;;8.90;99.90;;;;;;5136655;27;20049;-81
2023/04/01 13:39:38;;;;;;;1.02;0.30;;;8.80;99.90;;;;;;5100590;27;20488;-81
2023/04/01 13:42:25;;;;;;;0.20;0.20;;;8.80;99.90;;;;;;5101137;27;20062;-81
2023/04/01 13:45:14;;;;;;;0.20;0.10;;;8.80;99.90;;;;;;5135955;27;20542;-81
2023/04/01 13:48:10;;;;;;;0.30;0.30;;;8.80;99.90;;;;;;5135938;27;20188;-81